createdAt,value
2018-06-02T00:00:03.489Z,18
2018-06-02T00:01:05.542Z,18
2018-06-02T00:02:07.598Z,18
2018-06-02T00:03:09.917Z,18
2018-06-02T00:04:11.958Z,18
2018-06-02T00:05:14.000Z,17.9
2018-06-02T00:06:16.336Z,18
2018-06-02T00:07:18.389Z,18
2018-06-02T00:08:20.810Z,18
2018-06-02T00:09:22.860Z,18
2018-06-02T00:10:24.903Z,18
2018-06-02T00:11:26.951Z,18.1
2018-06-02T00:12:28.991Z,18.1
2018-06-02T00:13:31.428Z,18.2
2018-06-02T00:14:33.471Z,18.2
2018-06-02T00:15:35.505Z,18.2
2018-06-02T00:16:37.550Z,18.2
2018-06-02T00:17:39.608Z,18.2
2018-06-02T00:18:42.039Z,18.2
2018-06-02T00:19:44.362Z,18.2
2018-06-02T00:20:46.686Z,18.1
2018-06-02T00:21:48.726Z,18.1
2018-06-02T00:22:50.770Z,18.1
2018-06-02T00:23:52.814Z,18.1
2018-06-02T00:24:54.869Z,18.1
2018-06-02T00:25:57.211Z,18.1
2018-06-02T00:26:59.245Z,18.1
2018-06-02T00:28:01.287Z,18.1
2018-06-02T00:29:03.341Z,18
2018-06-02T00:30:05.396Z,18
2018-06-02T00:31:07.447Z,18
2018-06-02T00:32:09.485Z,18
2018-06-02T00:33:11.524Z,18
2018-06-02T00:34:13.963Z,17.9
2018-06-02T00:35:16.002Z,17.9
2018-06-02T00:36:18.325Z,17.9
2018-06-02T00:37:20.382Z,18
2018-06-02T00:38:22.713Z,18
2018-06-02T00:39:25.137Z,18
2018-06-02T00:40:27.180Z,18
2018-06-02T00:41:29.527Z,18
2018-06-02T00:42:31.571Z,18
2018-06-02T00:43:33.883Z,18
2018-06-02T00:44:36.224Z,18
2018-06-02T00:45:38.274Z,17.9
2018-06-02T00:46:40.313Z,17.9
2018-06-02T00:47:42.357Z,18
2018-06-02T00:48:44.414Z,18
2018-06-02T00:49:46.736Z,18
2018-06-02T00:50:48.776Z,18
2018-06-02T00:51:50.814Z,18
2018-06-02T00:52:52.863Z,18
2018-06-02T00:53:55.498Z,18
2018-06-02T00:54:57.551Z,18
2018-06-02T00:55:59.602Z,18
2018-06-02T00:57:01.657Z,17.9
2018-06-02T00:58:03.688Z,17.9
2018-06-02T00:59:05.733Z,17.9
2018-06-02T01:00:07.778Z,18
2018-06-02T01:01:09.831Z,18
2018-06-02T01:02:12.185Z,18
2018-06-02T01:03:14.230Z,18
2018-06-02T01:04:16.270Z,18
2018-06-02T01:05:18.325Z,18
2018-06-02T01:06:20.365Z,18
2018-06-02T01:07:22.397Z,18
2018-06-02T01:08:24.440Z,18
2018-06-02T01:09:26.501Z,17.9
2018-06-02T01:10:29.128Z,17.9
2018-06-02T01:11:31.174Z,17.8
2018-06-02T01:12:33.222Z,17.8
2018-06-02T01:13:35.270Z,17.8
2018-06-02T01:14:37.317Z,17.9
2018-06-02T01:15:39.353Z,17.9
2018-06-02T01:16:41.796Z,17.8
2018-06-02T01:17:43.852Z,17.8
2018-06-02T01:18:45.891Z,17.8
2018-06-02T01:19:47.929Z,17.8
2018-06-02T01:20:50.033Z,17.7
2018-06-02T01:21:52.022Z,17.7
2018-06-02T01:22:54.351Z,17.7
2018-06-02T01:23:56.386Z,17.7
2018-06-02T01:24:58.437Z,17.7
2018-06-02T01:26:00.484Z,17.7
2018-06-02T01:27:02.520Z,17.7
2018-06-02T01:28:04.571Z,17.7
2018-06-02T01:29:06.619Z,17.7
2018-06-02T01:30:08.660Z,17.7
2018-06-02T01:31:10.707Z,17.7
2018-06-02T01:32:13.023Z,17.6
2018-06-02T01:33:15.075Z,17.6
2018-06-02T01:34:17.114Z,17.6
2018-06-02T01:35:19.152Z,17.6
2018-06-02T01:36:21.203Z,17.5
2018-06-02T01:37:23.243Z,17.6
2018-06-02T01:38:25.276Z,17.6
2018-06-02T01:39:27.325Z,17.6
2018-06-02T01:40:29.373Z,17.6
2018-06-02T01:41:31.707Z,17.6
2018-06-02T01:42:34.340Z,17.6
2018-06-02T01:43:36.378Z,17.6
2018-06-02T01:44:38.707Z,17.5
2018-06-02T01:45:40.753Z,17.5
2018-06-02T01:46:43.092Z,17.5
2018-06-02T01:47:45.124Z,17.5
2018-06-02T01:48:47.170Z,17.4
2018-06-02T01:49:49.227Z,17.4
2018-06-02T01:50:51.259Z,17.4
2018-06-02T01:51:53.307Z,17.4
2018-06-02T01:52:55.634Z,17.3
2018-06-02T01:53:57.682Z,17.4
2018-06-02T01:55:00.106Z,17.4
2018-06-02T01:56:02.429Z,17.4
2018-06-02T01:57:04.483Z,17.4
2018-06-02T01:58:06.523Z,17.3
2018-06-02T01:59:08.849Z,17.4
2018-06-02T02:00:10.896Z,17.3
2018-06-02T02:01:13.257Z,17.3
2018-06-02T02:02:15.307Z,17.3
2018-06-02T02:03:17.342Z,17.2
2018-06-02T02:04:19.778Z,17.2
2018-06-02T02:05:21.823Z,17.2
2018-06-02T02:06:23.854Z,17.1
2018-06-02T02:07:25.896Z,17.1
2018-06-02T02:08:27.931Z,17.2
2018-06-02T02:09:30.877Z,17.2
2018-06-02T02:10:32.926Z,17.2
2018-06-02T02:11:34.966Z,17
2018-06-02T02:12:37.008Z,17.1
2018-06-02T02:13:39.033Z,17
2018-06-02T02:14:41.077Z,17
2018-06-02T02:15:43.503Z,17
2018-06-02T02:16:45.853Z,17
2018-06-02T02:17:47.919Z,17
2018-06-02T02:18:49.951Z,17
2018-06-02T02:19:52.001Z,17.2
2018-06-02T02:20:54.047Z,17.1
2018-06-02T02:21:56.083Z,17.1
2018-06-02T02:22:58.126Z,17.1
2018-06-02T02:24:00.168Z,17.1
2018-06-02T02:25:02.220Z,17.1
2018-06-02T02:26:04.282Z,17.1
2018-06-02T02:27:06.325Z,17.1
2018-06-02T02:28:08.371Z,17.1
2018-06-02T02:29:10.413Z,17.2
2018-06-02T02:30:12.468Z,17.1
2018-06-02T02:31:14.506Z,17.1
2018-06-02T02:32:16.836Z,17.1
2018-06-02T02:33:18.891Z,17.1
2018-06-02T02:34:21.305Z,17
2018-06-02T02:35:23.727Z,16.9
2018-06-02T02:36:26.161Z,16.9
2018-06-02T02:37:28.203Z,16.9
2018-06-02T02:38:30.562Z,16.9
2018-06-02T02:39:32.589Z,16.9
2018-06-02T02:40:34.630Z,16.9
2018-06-02T02:41:36.671Z,16.9
2018-06-02T02:42:39.001Z,16.9
2018-06-02T02:43:41.708Z,17
2018-06-02T02:44:44.443Z,17
2018-06-02T02:45:46.496Z,17
2018-06-02T02:46:48.819Z,16.9
2018-06-02T02:47:51.539Z,16.9
2018-06-02T02:48:53.581Z,16.9
2018-06-02T02:49:55.914Z,16.9
2018-06-02T02:50:57.963Z,16.9
2018-06-02T02:52:00.284Z,16.8
2018-06-02T02:53:02.333Z,16.8
2018-06-02T02:54:04.360Z,16.8
2018-06-02T02:55:06.698Z,16.8
2018-06-02T02:56:08.755Z,16.8
2018-06-02T02:57:11.092Z,16.8
2018-06-02T02:58:13.817Z,16.8
2018-06-02T02:59:15.851Z,16.8
2018-06-02T03:00:18.199Z,17
2018-06-02T03:01:20.522Z,17
2018-06-02T03:02:22.571Z,16.9
2018-06-02T03:03:25.288Z,16.9
2018-06-02T03:04:27.617Z,16.9
2018-06-02T03:05:29.674Z,16.9
2018-06-02T03:06:31.718Z,16.9
2018-06-02T03:07:34.147Z,16.8
2018-06-02T03:08:36.191Z,16.8
2018-06-02T03:09:38.616Z,16.9
2018-06-02T03:10:41.049Z,16.9
2018-06-02T03:11:43.687Z,16.9
2018-06-02T03:12:45.732Z,16.9
2018-06-02T03:13:47.785Z,16.8
2018-06-02T03:14:49.817Z,16.8
2018-06-02T03:15:51.860Z,16.8
2018-06-02T03:16:53.913Z,16.7
2018-06-02T03:17:55.945Z,16.7
2018-06-02T03:18:57.985Z,16.7
2018-06-02T03:20:00.037Z,16.7
2018-06-02T03:21:02.440Z,16.8
2018-06-02T03:22:04.489Z,16.8
2018-06-02T03:23:06.533Z,16.8
2018-06-02T03:24:08.863Z,16.9
2018-06-02T03:25:10.916Z,16.9
2018-06-02T03:26:13.237Z,16.9
2018-06-02T03:27:15.549Z,16.9
2018-06-02T03:28:17.937Z,16.8
2018-06-02T03:29:19.975Z,16.8
2018-06-02T03:30:22.327Z,16.9
2018-06-02T03:31:24.957Z,16.9
2018-06-02T03:32:27.007Z,16.9
2018-06-02T03:33:29.051Z,16.9
2018-06-02T03:34:31.083Z,16.9
2018-06-02T03:35:33.125Z,16.9
2018-06-02T03:36:35.183Z,16.9
2018-06-02T03:37:37.219Z,17
2018-06-02T03:38:39.266Z,17
2018-06-02T03:39:41.303Z,17
2018-06-02T03:40:43.734Z,17
2018-06-02T03:41:45.768Z,17
2018-06-02T03:42:47.812Z,17
2018-06-02T03:43:50.140Z,17
2018-06-02T03:44:52.179Z,17
2018-06-02T03:45:54.896Z,17
2018-06-02T03:46:56.943Z,17
2018-06-02T03:47:58.978Z,16.9
2018-06-02T03:49:01.022Z,16.9
2018-06-02T03:50:03.068Z,17
2018-06-02T03:51:05.104Z,17
2018-06-02T03:52:07.146Z,16.9
2018-06-02T03:53:09.494Z,16.9
2018-06-02T03:54:11.541Z,16.9
2018-06-02T03:55:13.585Z,17
2018-06-02T03:56:15.634Z,17
2018-06-02T03:57:17.672Z,17
2018-06-02T03:58:20.004Z,17
2018-06-02T03:59:22.049Z,17.1
2018-06-02T04:00:24.742Z,17.1
2018-06-02T04:01:26.789Z,17.1
2018-06-02T04:02:28.837Z,17.2
2018-06-02T04:03:30.879Z,17.1
2018-06-02T04:04:32.924Z,17.2
2018-06-02T04:05:34.960Z,17.2
2018-06-02T04:06:37.396Z,17.2
2018-06-02T04:07:39.430Z,17.2
2018-06-02T04:08:41.862Z,17.1
2018-06-02T04:09:44.213Z,17.1
2018-06-02T04:10:46.250Z,17.1
2018-06-02T04:11:48.292Z,17.1
2018-06-02T04:12:50.334Z,17.1
2018-06-02T04:13:52.381Z,17.1
2018-06-02T04:14:54.429Z,17.2
2018-06-02T04:15:56.574Z,17.2
2018-06-02T04:16:58.509Z,17.3
2018-06-02T04:18:00.550Z,17.3
2018-06-02T04:19:02.602Z,17.4
2018-06-02T04:20:04.642Z,17.4
2018-06-02T04:21:06.676Z,17.5
2018-06-02T04:22:08.730Z,17.5
2018-06-02T04:23:10.766Z,17.5
2018-06-02T04:24:12.814Z,17.5
2018-06-02T04:25:14.860Z,17.4
2018-06-02T04:26:16.919Z,17.5
2018-06-02T04:27:18.959Z,17.3
2018-06-02T04:28:20.989Z,17.4
2018-06-02T04:29:23.039Z,17.4
2018-06-02T04:30:25.074Z,17.5
2018-06-02T04:31:27.497Z,17.5
2018-06-02T04:32:29.542Z,17.6
2018-06-02T04:33:31.582Z,17.6
2018-06-02T04:34:33.636Z,17.6
2018-06-02T04:35:35.676Z,17.6
2018-06-02T04:36:38.017Z,17.7
2018-06-02T04:37:40.053Z,17.7
2018-06-02T04:38:42.486Z,17.6
2018-06-02T04:39:44.525Z,17.6
2018-06-02T04:40:46.575Z,17.6
2018-06-02T04:41:48.998Z,17.6
2018-06-02T04:42:51.347Z,17.7
2018-06-02T04:43:53.394Z,17.7
2018-06-02T04:44:55.436Z,17.6
2018-06-02T04:45:57.871Z,17.7
2018-06-02T04:46:59.908Z,17.7
2018-06-02T04:48:01.949Z,17.7
2018-06-02T04:49:03.996Z,17.7
2018-06-02T04:50:06.420Z,17.8
2018-06-02T04:51:08.472Z,17.8
2018-06-02T04:52:10.788Z,17.8
2018-06-02T04:53:13.212Z,17.8
2018-06-02T04:54:15.640Z,17.8
2018-06-02T04:55:17.683Z,17.9
2018-06-02T04:56:19.733Z,17.9
2018-06-02T04:57:21.771Z,17.8
2018-06-02T04:58:23.812Z,17.9
2018-06-02T04:59:25.867Z,17.9
2018-06-02T05:00:27.907Z,17.9
2018-06-02T05:01:29.957Z,17.9
2018-06-02T05:02:32.307Z,17.9
2018-06-02T05:03:34.361Z,17.9
2018-06-02T05:04:36.692Z,17.9
2018-06-02T05:05:38.726Z,17.9
2018-06-02T05:06:40.776Z,17.9
2018-06-02T05:07:42.820Z,17.9
2018-06-02T05:08:44.850Z,17.9
2018-06-02T05:09:46.895Z,18
2018-06-02T05:10:48.943Z,18
2018-06-02T05:11:50.988Z,18
2018-06-02T05:12:53.033Z,18
2018-06-02T05:13:55.376Z,18
2018-06-02T05:14:57.695Z,18
2018-06-02T05:15:59.736Z,18
2018-06-02T05:17:01.777Z,17.9
2018-06-02T05:18:03.820Z,18
2018-06-02T05:19:05.862Z,18
2018-06-02T05:20:07.912Z,18
2018-06-02T05:21:10.339Z,18
2018-06-02T05:22:12.688Z,18.1
2018-06-02T05:23:14.721Z,18.1
2018-06-02T05:24:16.766Z,18.1
2018-06-02T05:25:18.804Z,18.2
2018-06-02T05:26:21.141Z,18.2
2018-06-02T05:27:23.185Z,18.3
2018-06-02T05:28:25.521Z,18.3
2018-06-02T05:29:27.563Z,18.3
2018-06-02T05:30:29.617Z,18.3
2018-06-02T05:31:31.650Z,18.3
2018-06-02T05:32:34.088Z,18.3
2018-06-02T05:33:36.137Z,18.3
2018-06-02T05:34:38.187Z,18.3
2018-06-02T05:35:40.608Z,18.3
2018-06-02T05:36:42.654Z,18.3
2018-06-02T05:37:44.691Z,18.4
2018-06-02T05:38:46.741Z,18.5
2018-06-02T05:39:48.785Z,18.5
2018-06-02T05:40:50.824Z,18.5
2018-06-02T05:41:53.176Z,18.5
2018-06-02T05:42:55.218Z,18.6
2018-06-02T05:43:57.259Z,18.6
2018-06-02T05:44:59.304Z,18.6
2018-06-02T05:46:01.887Z,18.7
2018-06-02T05:47:04.145Z,18.7
2018-06-02T05:48:06.192Z,18.8
2018-06-02T05:49:08.612Z,18.8
2018-06-02T05:50:10.961Z,18.8
2018-06-02T05:51:13.002Z,18.9
2018-06-02T05:52:15.433Z,18.9
2018-06-02T05:53:17.767Z,19
2018-06-02T05:54:19.810Z,19
2018-06-02T05:55:21.854Z,19
2018-06-02T05:56:23.886Z,19.1
2018-06-02T05:57:25.937Z,19.1
2018-06-02T05:58:27.995Z,19.2
2018-06-02T05:59:30.039Z,19.2
2018-06-02T06:00:32.090Z,19.2
2018-06-02T06:01:34.331Z,19.3
2018-06-02T06:02:36.769Z,19.3
2018-06-02T06:03:38.805Z,19.4
2018-06-02T06:04:41.145Z,19.4
2018-06-02T06:05:43.198Z,19.4
2018-06-02T06:06:45.521Z,19.4
2018-06-02T06:07:47.951Z,19.5
2018-06-02T06:08:49.989Z,19.5
2018-06-02T06:09:52.045Z,19.4
2018-06-02T06:10:54.483Z,19.4
2018-06-02T06:11:56.907Z,19.5
2018-06-02T06:12:59.263Z,19.6
2018-06-02T06:14:01.297Z,19.7
2018-06-02T06:15:03.355Z,19.8
2018-06-02T06:16:05.404Z,19.7
2018-06-02T06:17:07.446Z,19.8
2018-06-02T06:18:09.499Z,19.8
2018-06-02T06:19:11.542Z,19.9
2018-06-02T06:20:13.572Z,19.9
2018-06-02T06:21:15.624Z,20
2018-06-02T06:22:17.673Z,20.1
2018-06-02T06:23:19.724Z,20.1
2018-06-02T06:24:21.772Z,20.1
2018-06-02T06:25:23.814Z,20.1
2018-06-02T06:26:25.856Z,20.1
2018-06-02T06:27:27.912Z,20.2
2018-06-02T06:28:30.234Z,20.2
2018-06-02T06:29:32.283Z,20.1
2018-06-02T06:30:34.329Z,20
2018-06-02T06:31:36.373Z,20.1
2018-06-02T06:32:38.422Z,20.2
2018-06-02T06:33:40.478Z,20.3
2018-06-02T06:34:42.829Z,20.4
2018-06-02T06:35:44.883Z,20.4
2018-06-02T06:36:46.927Z,20.5
2018-06-02T06:37:48.988Z,20.5
2018-06-02T06:38:51.028Z,20.5
2018-06-02T06:39:53.093Z,20.5
2018-06-02T06:40:55.418Z,20.5
2018-06-02T06:41:57.465Z,20.5
2018-06-02T06:42:59.812Z,20.5
2018-06-02T06:44:01.857Z,20.5
2018-06-02T06:45:04.190Z,20.5
2018-06-02T06:46:44.584Z,20.5
2018-06-02T06:47:46.579Z,20.5
2018-06-02T06:48:48.981Z,20.4
2018-06-02T06:49:50.982Z,20.6
2018-06-02T06:50:53.272Z,20.6
2018-06-02T06:51:55.275Z,20.6
2018-06-02T06:52:57.287Z,20.6
2018-06-02T06:53:59.286Z,20.6
2018-06-02T06:55:01.292Z,20.6
2018-06-02T06:56:03.307Z,20.5
2018-06-02T06:57:05.307Z,20.7
2018-06-02T06:58:07.318Z,20.8
2018-06-02T06:59:09.324Z,20.8
2018-06-02T07:00:11.633Z,21
2018-06-02T07:01:13.641Z,21
2018-06-02T07:02:15.649Z,21
2018-06-02T07:03:17.672Z,21.1
2018-06-02T07:04:20.104Z,21.2
2018-06-02T07:05:22.060Z,21.3
2018-06-02T07:06:24.453Z,21.5
2018-06-02T07:07:26.466Z,21.5
2018-06-02T07:08:28.767Z,21.4
2018-06-02T07:09:30.787Z,21.4
2018-06-02T07:10:32.790Z,21.4
2018-06-02T07:11:34.798Z,21.5
2018-06-02T07:12:36.799Z,21.6
2018-06-02T07:13:38.802Z,21.6
2018-06-02T07:14:40.825Z,21.7
2018-06-02T07:15:42.875Z,21.7
2018-06-02T07:16:45.181Z,21.8
2018-06-02T07:17:47.200Z,21.8
2018-06-02T07:18:49.196Z,21.7
2018-06-02T07:19:51.206Z,21.8
2018-06-02T07:20:53.212Z,21.8
2018-06-02T07:21:55.238Z,21.9
2018-06-02T07:22:57.251Z,21.8
2018-06-02T07:23:59.247Z,21.8
2018-06-02T07:25:01.260Z,21.8
2018-06-02T07:26:03.255Z,21.9
2018-06-02T07:27:05.275Z,22.1
2018-06-02T07:28:07.278Z,22
2018-06-02T07:29:09.281Z,22
2018-06-02T07:30:11.296Z,22
2018-06-02T07:31:13.580Z,21.9
2018-06-02T07:32:15.585Z,22.2
2018-06-02T07:33:17.588Z,22.1
2018-06-02T07:34:19.591Z,22.2
2018-06-02T07:35:21.904Z,22
2018-06-02T07:36:23.885Z,22.1
2018-06-02T07:37:26.281Z,22
2018-06-02T07:38:28.596Z,21.9
2018-06-02T07:39:30.604Z,22
2018-06-02T07:40:32.619Z,22.1
2018-06-02T07:41:34.627Z,22.1
2018-06-02T07:42:36.642Z,22.3
2018-06-02T07:43:39.027Z,22.2
2018-06-02T07:44:41.034Z,22.2
2018-06-02T07:45:43.049Z,22.2
2018-06-02T07:46:45.440Z,22.2
2018-06-02T07:47:47.433Z,22.2
2018-06-02T07:48:49.443Z,22.2
2018-06-02T07:49:51.456Z,22.3
2018-06-02T07:50:53.456Z,22.3
2018-06-02T07:51:55.469Z,22.2
2018-06-02T07:52:57.474Z,22.3
2018-06-02T07:53:59.495Z,22.4
2018-06-02T07:55:02.062Z,22.5
2018-06-02T07:56:04.068Z,22.5
2018-06-02T07:57:06.091Z,22.6
2018-06-02T07:58:08.094Z,22.7
2018-06-02T07:59:10.385Z,22.8
2018-06-02T08:00:12.386Z,22.8
2018-06-02T08:01:14.400Z,22.8
2018-06-02T08:02:16.784Z,22.9
2018-06-02T08:03:18.793Z,23
2018-06-02T08:04:20.799Z,23
2018-06-02T08:05:22.803Z,22.9
2018-06-02T08:06:24.817Z,22.8
2018-06-02T08:07:26.831Z,22.8
2018-06-02T08:08:29.615Z,23
2018-06-02T08:09:31.611Z,23.1
2018-06-02T08:10:33.611Z,23.3
2018-06-02T08:11:35.633Z,23.3
2018-06-02T08:12:37.924Z,23.4
2018-06-02T08:13:39.930Z,23.4
2018-06-02T08:14:41.942Z,23.3
2018-06-02T08:15:44.243Z,23.5
2018-06-02T08:16:46.627Z,23.6
2018-06-02T08:17:48.639Z,23.5
2018-06-02T08:18:50.654Z,23.4
2018-06-02T08:19:52.668Z,23.4
2018-06-02T08:20:54.676Z,23.3
2018-06-02T08:21:56.687Z,23.1
2018-06-02T08:22:59.257Z,23.2
2018-06-02T08:24:01.268Z,23.2
2018-06-02T08:25:03.275Z,23.3
2018-06-02T08:26:05.287Z,23.3
2018-06-02T08:27:07.292Z,23
2018-06-02T08:28:09.688Z,22.7
2018-06-02T08:29:11.697Z,23
2018-06-02T08:30:13.713Z,23.2
2018-06-02T08:31:15.729Z,23.1
2018-06-02T08:32:17.730Z,23.1
2018-06-02T08:33:19.770Z,23.2
2018-06-02T08:34:21.765Z,23.2
2018-06-02T08:35:24.042Z,23.4
2018-06-02T08:36:26.070Z,23.4
2018-06-02T08:37:28.356Z,23.4
2018-06-02T08:38:30.365Z,23.5
2018-06-02T08:39:32.376Z,23.4
2018-06-02T08:40:34.760Z,23.2
2018-06-02T08:41:36.777Z,23.5
2018-06-02T08:42:39.161Z,23.5
2018-06-02T08:43:41.171Z,23.4
2018-06-02T08:44:43.188Z,23.5
2018-06-02T08:45:45.198Z,23.5
2018-06-02T08:46:47.214Z,23.4
2018-06-02T08:47:49.610Z,23.4
2018-06-02T08:48:51.619Z,23.4
2018-06-02T08:49:53.920Z,23.3
2018-06-02T08:50:55.925Z,23.4
2018-06-02T08:51:57.931Z,23.3
2018-06-02T08:53:00.229Z,23.2
2018-06-02T08:54:02.229Z,23.3
2018-06-02T08:55:04.228Z,23.4
2018-06-02T08:56:06.522Z,23.2
2018-06-02T08:57:08.540Z,23.8
2018-06-02T08:58:10.829Z,23.9
2018-06-02T08:59:12.828Z,24
2018-06-02T09:00:14.838Z,23.9
2018-06-02T09:01:16.849Z,24
2018-06-02T09:02:18.849Z,23.9
2018-06-02T09:03:20.867Z,24.1
2018-06-02T09:04:22.873Z,24
2018-06-02T09:05:24.916Z,24
2018-06-02T09:06:27.284Z,24.1
2018-06-02T09:07:29.288Z,24.3
2018-06-02T09:08:31.308Z,23.9
2018-06-02T09:09:33.326Z,23.9
2018-06-02T09:10:35.331Z,23.7
2018-06-02T09:11:37.630Z,24.1
2018-06-02T09:12:40.203Z,24.1
2018-06-02T09:13:42.881Z,24.1
2018-06-02T09:14:45.165Z,24
2018-06-02T09:15:47.184Z,24.1
2018-06-02T09:16:49.194Z,24
2018-06-02T09:17:51.190Z,23.7
2018-06-02T09:18:53.219Z,23.6
2018-06-02T09:19:55.230Z,23.8
2018-06-02T09:20:57.242Z,23.9
2018-06-02T09:21:59.246Z,24
2018-06-02T09:23:01.258Z,24.1
2018-06-02T09:24:03.315Z,24.1
2018-06-02T09:25:05.659Z,24.2
2018-06-02T09:26:07.671Z,24.1
2018-06-02T09:27:09.684Z,24.1
2018-06-02T09:28:11.694Z,24.4
2018-06-02T09:29:13.773Z,24.7
2018-06-02T09:30:16.075Z,24.6
2018-06-02T09:31:18.096Z,24.6
2018-06-02T09:32:20.119Z,24.5
2018-06-02T09:33:22.451Z,24.7
2018-06-02T09:34:25.131Z,24.6
2018-06-02T09:35:27.113Z,24.5
2018-06-02T09:36:29.129Z,24.5
2018-06-02T09:37:31.181Z,24.6
2018-06-02T09:38:33.190Z,24.7
2018-06-02T09:39:35.593Z,24.7
2018-06-02T09:40:37.614Z,24.6
2018-06-02T09:41:39.906Z,24.4
2018-06-02T09:42:42.307Z,24.3
2018-06-02T09:43:44.338Z,24.5
2018-06-02T09:44:46.358Z,24.5
2018-06-02T09:45:48.376Z,25
2018-06-02T09:46:50.354Z,25.1
2018-06-02T09:47:52.380Z,25
2018-06-02T09:48:54.792Z,25.3
2018-06-02T09:49:56.810Z,25.4
2018-06-02T09:50:58.828Z,25.3
2018-06-02T09:52:00.892Z,25.4
2018-06-02T09:53:02.897Z,25.5
2018-06-02T09:54:04.923Z,25.3
2018-06-02T09:55:07.224Z,25.8
2018-06-02T09:56:09.231Z,26.1
2018-06-02T09:57:11.251Z,25.9
2018-06-02T09:58:13.272Z,25.9
2018-06-02T09:59:15.584Z,25.9
2018-06-02T10:00:17.889Z,26
2018-06-02T10:01:19.913Z,25.8
2018-06-02T10:02:21.943Z,26.1
2018-06-02T10:03:24.394Z,26
2018-06-02T10:04:26.696Z,26.3
2018-06-02T10:05:28.996Z,26
2018-06-02T10:06:31.351Z,25.9
2018-06-02T10:07:33.680Z,26.2
2018-06-02T10:08:36.009Z,26.1
2018-06-02T10:09:38.052Z,26.2
2018-06-02T10:10:40.099Z,26.6
2018-06-02T10:11:42.157Z,26.7
2018-06-02T10:12:44.231Z,26.7
2018-06-02T10:13:46.279Z,27
2018-06-02T10:14:48.363Z,26.8
2018-06-02T10:15:50.419Z,26.8
2018-06-02T10:16:52.771Z,26.8
2018-06-02T10:17:55.109Z,27
2018-06-02T10:18:57.171Z,27.2
2018-06-02T10:19:59.285Z,27.3
2018-06-02T10:21:01.929Z,27.2
2018-06-02T10:22:03.989Z,27.3
2018-06-02T10:23:06.041Z,27
2018-06-02T10:24:08.108Z,26.9
2018-06-02T10:25:10.169Z,27.1
2018-06-02T10:26:12.223Z,27
2018-06-02T10:27:14.285Z,27.2
2018-06-02T10:28:16.729Z,27.2
2018-06-02T10:29:18.778Z,27.3
2018-06-02T10:30:20.839Z,27.3
2018-06-02T10:31:22.915Z,27.3
2018-06-02T10:32:25.281Z,26.7
2018-06-02T10:33:27.633Z,26.8
2018-06-02T10:34:29.690Z,26.8
2018-06-02T10:35:31.803Z,26.8
2018-06-02T10:36:34.534Z,26.4
2018-06-02T10:37:36.878Z,26.1
2018-06-02T10:38:38.933Z,26.3
2018-06-02T10:39:41.035Z,26
2018-06-02T10:40:43.230Z,25.8
2018-06-02T10:41:45.281Z,26.2
2018-06-02T10:42:47.692Z,26.3
2018-06-02T10:43:49.907Z,27.1
2018-06-02T10:44:51.965Z,26.9
2018-06-02T10:45:54.033Z,26.9
2018-06-02T10:46:56.097Z,27.1
2018-06-02T10:47:58.159Z,26.9
2018-06-02T10:49:00.209Z,27.2
2018-06-02T10:50:02.269Z,27.1
2018-06-02T10:51:04.329Z,27.4
2018-06-02T10:52:06.390Z,27
2018-06-02T10:53:08.453Z,27.3
2018-06-02T10:54:10.514Z,27.2
2018-06-02T10:55:12.567Z,27.5
2018-06-02T10:56:14.629Z,27.5
2018-06-02T10:57:16.687Z,27.7
2018-06-02T10:58:18.752Z,27.6
2018-06-02T10:59:21.098Z,27.5
2018-06-02T11:00:23.153Z,27.6
2018-06-02T11:01:25.211Z,27.5
2018-06-02T11:02:27.263Z,27.6
2018-06-02T11:03:29.695Z,27.6
2018-06-02T11:04:31.764Z,27.5
2018-06-02T11:05:33.813Z,27.4
2018-06-02T11:06:35.873Z,27
2018-06-02T11:07:38.216Z,27.1
2018-06-02T11:08:40.272Z,27.4
2018-06-02T11:09:42.619Z,27.7
2018-06-02T11:10:44.673Z,27.6
2018-06-02T11:11:46.736Z,27.1
2018-06-02T11:12:48.801Z,27.8
2018-06-02T11:13:50.842Z,27.5
2018-06-02T11:14:53.211Z,27.5
2018-06-02T11:15:55.663Z,27.5
2018-06-02T11:16:57.721Z,27.2
2018-06-02T11:18:00.444Z,27.6
2018-06-02T11:19:02.505Z,27.3
2018-06-02T11:20:04.560Z,27.1
2018-06-02T11:21:07.043Z,27
2018-06-02T11:22:09.369Z,27.1
2018-06-02T11:23:11.428Z,26.8
2018-06-02T11:24:13.780Z,26.3
2018-06-02T11:25:16.123Z,26.3
2018-06-02T11:26:18.173Z,26.6
2018-06-02T11:27:20.233Z,26.5
2018-06-02T11:28:22.287Z,26.5
2018-06-02T11:29:24.352Z,26.9
2018-06-02T11:30:26.402Z,27.2
2018-06-02T11:31:28.458Z,27.1
2018-06-02T11:32:30.800Z,26.9
2018-06-02T11:33:32.862Z,26.7
2018-06-02T11:34:34.914Z,26.8
2018-06-02T11:35:36.984Z,27.2
2018-06-02T11:36:39.599Z,26.6
2018-06-02T11:37:41.953Z,26.3
2018-06-02T11:38:44.293Z,26.3
2018-06-02T11:39:46.353Z,26.9
2018-06-02T11:40:48.416Z,27
2018-06-02T11:41:50.472Z,26.9
2018-06-02T11:42:52.822Z,26.5
2018-06-02T11:43:55.162Z,26.3
2018-06-02T11:44:57.210Z,26.4
2018-06-02T11:45:59.275Z,26.3
2018-06-02T11:47:01.333Z,26.5
2018-06-02T11:48:04.114Z,26.8
2018-06-02T11:49:06.135Z,26.4
2018-06-02T11:50:08.462Z,26.6
2018-06-02T11:51:10.920Z,26.3
2018-06-02T11:52:13.357Z,26.1
2018-06-02T11:53:15.414Z,26.4
2018-06-02T11:54:17.456Z,26.7
2018-06-02T11:55:19.897Z,26.4
2018-06-02T11:56:22.283Z,26.5
2018-06-02T11:57:24.325Z,26.2
2018-06-02T11:58:26.388Z,25.8
2018-06-02T11:59:28.450Z,26.3
2018-06-02T12:00:30.499Z,26.3
2018-06-02T12:01:32.554Z,26.3
2018-06-02T12:02:34.607Z,26.5
2018-06-02T12:03:36.672Z,26.3
2018-06-02T12:04:38.731Z,26.1
2018-06-02T12:05:40.779Z,26.4
2018-06-02T12:06:42.836Z,26.1
2018-06-02T12:07:44.889Z,26.1
2018-06-02T12:08:46.947Z,25.9
2018-06-02T12:09:49.000Z,26
2018-06-02T12:10:51.063Z,25.7
2018-06-02T12:11:53.114Z,25.8
2018-06-02T12:12:55.554Z,25.9
2018-06-02T12:13:57.965Z,25.9
2018-06-02T12:15:00.246Z,25.5
2018-06-02T12:16:02.312Z,25.5
2018-06-02T12:17:04.358Z,25.2
2018-06-02T12:18:06.461Z,25.1
2018-06-02T12:19:08.474Z,25.1
2018-06-02T12:20:10.523Z,25
2018-06-02T12:21:12.965Z,25
2018-06-02T12:22:15.021Z,25
2018-06-02T12:23:17.076Z,25
2018-06-02T12:24:19.135Z,24.9
2018-06-02T12:25:21.182Z,24.6
2018-06-02T12:26:23.237Z,24.7
2018-06-02T12:27:25.293Z,24.5
2018-06-02T12:28:27.452Z,24.6
2018-06-02T12:29:29.861Z,24.7
2018-06-02T12:30:31.908Z,24.7
2018-06-02T12:31:33.957Z,24.6
2018-06-02T12:32:36.012Z,24.5
2018-06-02T12:33:38.456Z,24.5
2018-06-02T12:34:40.836Z,24.4
2018-06-02T12:35:42.839Z,24.5
2018-06-02T12:36:44.906Z,24.5
2018-06-02T12:37:46.948Z,24.4
2018-06-02T12:38:49.008Z,24.1
2018-06-02T12:39:51.055Z,24.3
2018-06-02T12:40:53.118Z,24.3
2018-06-02T12:41:55.166Z,24.4
2018-06-02T12:42:57.213Z,24.4
2018-06-02T12:43:59.285Z,24.5
2018-06-02T12:45:01.376Z,24.5
2018-06-02T12:46:03.704Z,24.7
2018-06-02T12:47:05.765Z,24.8
2018-06-02T12:48:08.112Z,24.8
2018-06-02T12:49:10.156Z,25
2018-06-02T12:50:12.210Z,24.8
2018-06-02T12:51:14.270Z,24.6
2018-06-02T12:52:16.717Z,24.6
2018-06-02T12:53:19.449Z,24.6
2018-06-02T12:54:21.455Z,24.9
2018-06-02T12:55:23.798Z,25.1
2018-06-02T12:56:26.420Z,25.1
2018-06-02T12:57:28.763Z,25.1
2018-06-02T12:58:31.097Z,25.2
2018-06-02T12:59:33.154Z,25.5
2018-06-02T13:00:35.198Z,25.5
2018-06-02T13:01:37.633Z,25.7
2018-06-02T13:02:39.683Z,25.8
2018-06-02T13:03:41.740Z,26
2018-06-02T13:04:43.796Z,25.7
2018-06-02T13:05:45.853Z,25.6
2018-06-02T13:06:47.911Z,25.6
2018-06-02T13:07:49.966Z,25.6
2018-06-02T13:08:52.015Z,25.7
2018-06-02T13:09:54.069Z,25.4
2018-06-02T13:10:56.120Z,25.2
2018-06-02T13:11:58.184Z,25
2018-06-02T13:13:00.234Z,25.1
2018-06-02T13:14:02.576Z,25.1
2018-06-02T13:15:04.631Z,25.1
2018-06-02T13:16:06.688Z,25
2018-06-02T13:17:08.728Z,24.4
2018-06-02T13:18:11.182Z,24.7
2018-06-02T13:19:13.225Z,24.9
2018-06-02T13:20:15.563Z,25.1
2018-06-02T13:21:17.625Z,25.3
2018-06-02T13:22:19.679Z,25.2
2018-06-02T13:23:22.115Z,25.4
2018-06-02T13:24:24.455Z,25.1
2018-06-02T13:25:26.506Z,25.6
2018-06-02T13:26:28.563Z,25.7
2018-06-02T13:27:30.618Z,25.6
2018-06-02T13:28:32.670Z,25.6
2018-06-02T13:29:34.731Z,25.8
2018-06-02T13:30:36.776Z,25.6
2018-06-02T13:31:39.413Z,25.8
2018-06-02T13:32:41.457Z,25.9
2018-06-02T13:33:43.508Z,25.5
2018-06-02T13:34:45.574Z,25.4
2018-06-02T13:35:47.617Z,25.5
2018-06-02T13:36:49.670Z,25.5
2018-06-02T13:37:52.112Z,25.5
2018-06-02T13:38:54.169Z,25.5
2018-06-02T13:39:56.234Z,25.4
2018-06-02T13:40:58.270Z,25.6
2018-06-02T13:42:00.719Z,26.1
2018-06-02T13:43:03.406Z,25.9
2018-06-02T13:44:05.456Z,26
2018-06-02T13:45:07.905Z,25.9
2018-06-02T13:46:09.963Z,26
2018-06-02T13:47:12.025Z,25.9
2018-06-02T13:48:15.276Z,26.5
2018-06-02T13:49:17.614Z,26.4
2018-06-02T13:50:19.680Z,26.4
2018-06-02T13:51:22.102Z,26.2
2018-06-02T13:52:24.109Z,26.3
2018-06-02T13:53:26.169Z,26.5
2018-06-02T13:54:28.225Z,26.5
2018-06-02T13:55:30.283Z,26.5
2018-06-02T13:56:32.633Z,26.8